Time;durP1;ratioP1;P1;durP2;ratioP2;P2;SDS_P1;SDS_P2;PMS_P1;PMS_P2;Temp;Humidity;BMP_temperature;BMP_pressure;BME280_temperature;BME280_humidity;BME280_pressure;Samples;Min_cycle;Max_cycle;Signal;HPM_P1;HPM_P2
2021/08/10 00:01:11;;;;;;;5.43;3.55;;;15.00;99.90;;;;;;5013222;28;20088;-86
2021/08/10 00:03:37;;;;;;;5.13;3.42;;;15.00;99.90;;;;;;5010454;28;20033;-87
2021/08/10 00:06:03;;;;;;;8.55;3.88;;;14.90;99.90;;;;;;5010075;28;20038;-87
2021/08/10 00:08:28;;;;;;;5.43;3.47;;;14.90;99.90;;;;;;5012244;28;20022;-87
2021/08/10 00:10:54;;;;;;;6.05;3.70;;;14.90;99.90;;;;;;5014626;28;20042;-87
2021/08/10 00:13:22;;;;;;;6.43;3.30;;;14.90;99.90;;;;;;5009451;28;20026;-87
2021/08/10 00:15:48;;;;;;;7.85;4.18;;;14.90;99.90;;;;;;5014860;28;20034;-87
2021/08/10 00:18:14;;;;;;;8.13;3.88;;;14.90;99.90;;;;;;5015089;28;20037;-87
2021/08/10 00:20:39;;;;;;;4.93;3.88;;;14.80;99.90;;;;;;5014073;28;20490;-86
2021/08/10 00:23:05;;;;;;;4.88;3.75;;;14.90;99.90;;;;;;5012256;28;20100;-87
2021/08/10 00:25:31;;;;;;;5.40;3.80;;;14.90;99.90;;;;;;5013613;28;20037;-87
2021/08/10 00:27:58;;;;;;;4.90;3.72;;;14.80;99.90;;;;;;5007262;28;20033;-87
2021/08/10 00:30:24;;;;;;;5.57;4.15;;;14.80;99.90;;;;;;5014934;28;20088;-87
2021/08/10 00:32:49;;;;;;;5.88;3.80;;;14.80;99.90;;;;;;5009002;28;20022;-87
2021/08/10 00:35:15;;;;;;;5.32;3.72;;;14.80;99.90;;;;;;5012821;28;20076;-87
2021/08/10 00:37:41;;;;;;;7.65;3.80;;;14.80;99.90;;;;;;5013086;28;20108;-86
2021/08/10 00:40:07;;;;;;;5.40;3.60;;;14.80;99.90;;;;;;5013700;28;20030;-86
2021/08/10 00:42:33;;;;;;;8.50;4.32;;;14.80;99.90;;;;;;5006554;28;20026;-87
2021/08/10 00:44:58;;;;;;;7.10;4.65;;;14.70;99.90;;;;;;5015544;28;20059;-87
2021/08/10 00:47:24;;;;;;;4.38;3.65;;;14.80;99.90;;;;;;5014184;28;20026;-87
2021/08/10 00:49:50;;;;;;;5.80;4.45;;;14.70;99.90;;;;;;5016101;28;20137;-87
2021/08/10 00:52:15;;;;;;;5.68;3.88;;;14.70;99.90;;;;;;5011429;28;20034;-88
2021/08/10 00:54:41;;;;;;;7.88;4.72;;;14.70;99.90;;;;;;5011688;28;20442;-87
2021/08/10 00:57:07;;;;;;;8.15;4.90;;;14.70;99.90;;;;;;5010604;28;20034;-87
2021/08/10 00:59:33;;;;;;;6.55;4.70;;;14.70;99.90;;;;;;5012949;28;20112;-87
2021/08/10 01:01:59;;;;;;;7.35;4.60;;;14.70;99.90;;;;;;5008782;28;20512;-88
2021/08/10 01:04:24;;;;;;;7.50;5.00;;;14.70;99.90;;;;;;5012870;28;20050;-87
2021/08/10 01:07:02;;;;;;;10.77;5.65;;;14.70;99.90;;;;;;5011795;28;20022;-87
2021/08/10 01:10:05;;;;;;;7.00;5.22;;;14.80;99.90;;;;;;5010494;28;20037;-87
2021/08/10 01:12:32;;;;;;;;;;;14.80;99.90;;;;;;5002858;28;20556;-88
2021/08/10 01:15:14;;;;;;;8.45;4.93;;;14.70;99.90;;;;;;5008197;28;19909;-87
2021/08/10 01:17:58;;;;;;;7.35;4.63;;;14.80;99.90;;;;;;5011171;28;20029;-87
2021/08/10 01:20:23;;;;;;;7.30;4.78;;;14.70;99.90;;;;;;5014862;28;20041;-88
2021/08/10 01:22:52;;;;;;;7.43;5.43;;;14.80;99.90;;;;;;5010587;28;20026;-88
2021/08/10 01:25:40;;;;;;;9.85;6.25;;;14.80;99.90;;;;;;5011472;28;20083;-87
2021/08/10 01:28:14;;;;;;;9.77;5.70;;;14.70;99.90;;;;;;5014561;28;20026;-87
2021/08/10 01:30:51;;;;;;;7.55;5.80;;;14.80;99.90;;;;;;5014454;28;20033;-88
2021/08/10 01:33:18;;;;;;;8.68;5.80;;;14.80;99.90;;;;;;5000021;28;20055;-88
2021/08/10 01:35:46;;;;;;;10.20;5.10;;;14.80;99.90;;;;;;5015511;28;20021;-87
2021/08/10 01:38:12;;;;;;;7.53;4.90;;;14.80;99.90;;;;;;5012645;28;20402;-87
2021/08/10 01:40:39;;;;;;;10.80;5.10;;;14.80;99.90;;;;;;5008996;28;20030;-88
2021/08/10 01:43:05;;;;;;;6.68;4.68;;;14.80;99.90;;;;;;5008997;28;20577;-88
2021/08/10 01:45:37;;;;;;;9.30;5.50;;;14.80;99.90;;;;;;5012071;28;20030;-88
2021/08/10 01:48:08;;;;;;;9.03;4.97;;;14.80;99.90;;;;;;5012808;28;20473;-88
2021/08/10 01:50:34;;;;;;;8.10;5.38;;;14.90;99.90;;;;;;5013994;28;20034;-88
2021/08/10 01:53:00;;;;;;;9.68;5.47;;;14.90;99.90;;;;;;5011087;28;20022;-88
2021/08/10 01:55:26;;;;;;;10.07;5.63;;;14.90;99.90;;;;;;5008231;28;20126;-88
2021/08/10 01:57:52;;;;;;;8.07;5.75;;;14.90;99.90;;;;;;5004864;28;20053;-88
2021/08/10 02:00:18;;;;;;;7.97;5.05;;;14.90;99.90;;;;;;5007958;28;20064;-88
2021/08/10 02:02:44;;;;;;;11.23;5.03;;;14.90;99.90;;;;;;5014897;28;20034;-88
2021/08/10 02:05:10;;;;;;;10.70;5.43;;;14.90;99.90;;;;;;5013322;28;20056;-88
2021/08/10 02:07:37;;;;;;;10.60;5.70;;;14.90;99.90;;;;;;5012809;28;20030;-89
2021/08/10 02:10:04;;;;;;;10.18;4.68;;;14.90;99.90;;;;;;5011177;28;20045;-89
2021/08/10 02:12:29;;;;;;;7.05;5.28;;;14.90;99.90;;;;;;5014242;28;20044;-88
2021/08/10 02:14:56;;;;;;;8.52;5.40;;;14.80;99.90;;;;;;5013504;28;20142;-89
2021/08/10 02:17:22;;;;;;;7.03;4.70;;;14.80;99.90;;;;;;5012788;28;20040;-88
2021/08/10 02:19:48;;;;;;;9.70;5.10;;;14.90;99.90;;;;;;5011142;28;20401;-88
2021/08/10 02:22:16;;;;;;;8.13;5.10;;;14.80;99.90;;;;;;5007535;28;20030;-88
2021/08/10 02:24:50;;;;;;;9.43;5.75;;;14.80;99.90;;;;;;5012643;28;20508;-88
2021/08/10 02:27:31;;;;;;;7.50;4.32;;;14.90;99.90;;;;;;5000897;28;20035;-88
2021/08/10 02:30:00;;;;;;;9.07;5.35;;;14.80;99.90;;;;;;5013935;28;20386;-88
2021/08/10 02:32:28;;;;;;;7.43;4.93;;;14.80;99.90;;;;;;5013461;28;20029;-88
2021/08/10 02:34:54;;;;;;;7.57;4.95;;;14.80;99.90;;;;;;5013270;28;20033;-88
2021/08/10 02:37:21;;;;;;;9.48;5.65;;;14.80;99.90;;;;;;4994761;28;20027;-88
2021/08/10 02:39:49;;;;;;;8.57;4.68;;;14.80;99.90;;;;;;5008879;28;20026;-88
2021/08/10 02:42:17;;;;;;;7.05;4.72;;;14.80;99.90;;;;;;5009728;28;20034;-88
2021/08/10 02:44:45;;;;;;;8.60;4.75;;;14.80;99.90;;;;;;5011844;28;20033;-88
2021/08/10 02:47:11;;;;;;;8.40;4.85;;;14.80;99.90;;;;;;5012194;28;20034;-88
2021/08/10 02:49:39;;;;;;;7.57;4.28;;;14.80;99.90;;;;;;5012721;28;20030;-88
2021/08/10 02:52:05;;;;;;;12.18;5.80;;;14.80;99.90;;;;;;5012414;28;20041;-88
2021/08/10 02:54:31;;;;;;;8.07;4.95;;;14.80;99.90;;;;;;5014209;28;20022;-88
2021/08/10 02:57:03;;;;;;;11.00;5.93;;;14.70;99.90;;;;;;5010101;28;20451;-88
2021/08/10 02:59:40;;;;;;;;;;;14.70;99.90;;;;;;5011500;28;20030;-89
2021/08/10 03:02:15;;;;;;;6.18;4.32;;;14.70;99.90;;;;;;5009100;28;20320;-87
2021/08/10 03:04:56;;;;;;;11.57;4.90;;;14.70;99.90;;;;;;5006597;28;20049;-87
2021/08/10 03:07:25;;;;;;;6.68;4.43;;;14.60;99.90;;;;;;5010601;28;20044;-87
2021/08/10 03:09:55;;;;;;;9.23;4.65;;;14.60;99.90;;;;;;5007168;28;20050;-86
2021/08/10 03:12:24;;;;;;;8.20;5.00;;;14.60;99.90;;;;;;5010356;28;20041;-87
2021/08/10 03:14:52;;;;;;;11.05;5.20;;;14.60;99.90;;;;;;5007823;28;20149;-87
2021/08/10 03:17:19;;;;;;;8.18;4.28;;;14.60;99.90;;;;;;5008586;28;20041;-87
2021/08/10 03:19:46;;;;;;;7.75;4.00;;;14.60;99.90;;;;;;5009064;28;20025;-87
2021/08/10 03:22:14;;;;;;;10.05;5.35;;;14.70;99.90;;;;;;5005644;28;20041;-87
2021/08/10 03:24:43;;;;;;;5.70;3.90;;;14.70;99.90;;;;;;5006942;28;20612;-87
2021/08/10 03:27:09;;;;;;;8.45;4.45;;;14.60;99.90;;;;;;5010263;28;20149;-87
2021/08/10 03:29:36;;;;;;;5.72;3.35;;;14.60;99.90;;;;;;5011623;28;20022;-87
2021/08/10 03:32:04;;;;;;;5.65;4.00;;;14.60;99.90;;;;;;5007111;28;20053;-88
2021/08/10 03:34:30;;;;;;;8.05;3.63;;;14.60;99.90;;;;;;5003196;28;20026;-87
2021/08/10 03:36:57;;;;;;;6.97;3.60;;;14.60;99.90;;;;;;5010182;28;20398;-87
2021/08/10 03:39:24;;;;;;;6.32;3.70;;;14.60;99.90;;;;;;5010925;28;20128;-87
2021/08/10 03:41:49;;;;;;;9.05;3.75;;;14.60;99.90;;;;;;5007500;28;20053;-87
2021/08/10 03:44:15;;;;;;;7.38;3.78;;;14.60;99.90;;;;;;5011786;28;20478;-87
2021/08/10 03:46:42;;;;;;;5.93;3.58;;;14.60;99.90;;;;;;5010967;28;20036;-88
2021/08/10 03:49:09;;;;;;;7.57;3.78;;;14.60;99.90;;;;;;5006409;28;20041;-87
2021/08/10 03:51:36;;;;;;;5.07;3.58;;;14.60;99.90;;;;;;5009704;28;20472;-87
2021/08/10 03:54:02;;;;;;;6.15;4.20;;;14.60;99.90;;;;;;5012892;28;20391;-87
2021/08/10 03:56:29;;;;;;;5.72;3.38;;;14.50;99.90;;;;;;5013206;28;20034;-88
2021/08/10 03:58:55;;;;;;;8.55;3.40;;;14.50;99.90;;;;;;5011832;28;20031;-87
2021/08/10 04:01:24;;;;;;;5.65;3.20;;;14.50;99.90;;;;;;5015405;28;20124;-87
2021/08/10 04:03:50;;;;;;;12.98;4.03;;;14.40;99.90;;;;;;5001397;28;20030;-87
2021/08/10 04:06:17;;;;;;;8.35;3.53;;;14.40;99.90;;;;;;5014562;28;20057;-87
2021/08/10 04:08:43;;;;;;;5.43;3.22;;;14.40;99.90;;;;;;5013732;28;20026;-87
2021/08/10 04:11:09;;;;;;;8.90;2.75;;;14.40;99.90;;;;;;5009889;28;20101;-87
2021/08/10 04:13:35;;;;;;;7.95;3.53;;;14.40;99.90;;;;;;5009406;28;20160;-87
2021/08/10 04:16:03;;;;;;;8.23;3.85;;;14.30;99.90;;;;;;5013801;28;20033;-86
2021/08/10 04:18:30;;;;;;;9.07;3.60;;;14.30;99.90;;;;;;5013881;28;20022;-87
2021/08/10 04:20:56;;;;;;;10.32;3.78;;;14.30;99.90;;;;;;5002205;28;20628;-86
2021/08/10 04:23:22;;;;;;;6.97;3.13;;;14.30;99.90;;;;;;5014117;28;20037;-87
2021/08/10 04:25:48;;;;;;;9.73;3.28;;;14.30;99.90;;;;;;5007521;28;20029;-87
2021/08/10 04:28:14;;;;;;;7.80;3.67;;;14.20;99.90;;;;;;5000091;28;20120;-87
2021/08/10 04:30:41;;;;;;;6.82;3.00;;;14.20;99.90;;;;;;5007234;28;20036;-87
2021/08/10 04:33:07;;;;;;;3.92;3.05;;;14.20;99.90;;;;;;5003799;28;20027;-87
2021/08/10 04:35:34;;;;;;;6.53;3.15;;;14.20;99.90;;;;;;5007443;28;20113;-88
2021/08/10 04:38:00;;;;;;;7.50;2.83;;;14.10;99.90;;;;;;5013287;28;20032;-87
2021/08/10 04:40:28;;;;;;;5.50;3.15;;;14.10;99.90;;;;;;5009607;28;20076;-88
2021/08/10 04:42:57;;;;;;;8.60;3.63;;;14.10;99.90;;;;;;5007311;28;20022;-88
2021/08/10 04:45:23;;;;;;;5.20;2.90;;;14.10;99.90;;;;;;5008854;28;20029;-88
2021/08/10 04:47:49;;;;;;;8.40;3.35;;;14.10;99.90;;;;;;5011376;28;20133;-88
2021/08/10 04:50:14;;;;;;;5.90;3.30;;;14.10;99.90;;;;;;5008219;28;20052;-88
2021/08/10 04:52:40;;;;;;;5.38;3.38;;;14.20;99.90;;;;;;5008943;28;20037;-88
2021/08/10 04:55:06;;;;;;;7.95;2.72;;;14.20;99.90;;;;;;5008365;28;20242;-88
2021/08/10 04:57:32;;;;;;;7.03;3.45;;;14.10;99.90;;;;;;5002993;28;20169;-88
2021/08/10 04:59:58;;;;;;;6.65;3.55;;;14.10;99.90;;;;;;5013799;28;20544;-87
2021/08/10 05:02:24;;;;;;;7.60;3.28;;;14.20;99.90;;;;;;5003986;28;20033;-87
2021/08/10 05:04:49;;;;;;;7.20;3.58;;;14.20;99.90;;;;;;5001373;28;20042;-88
2021/08/10 05:07:15;;;;;;;4.93;2.97;;;14.20;99.90;;;;;;5009078;28;20033;-88
2021/08/10 05:09:41;;;;;;;11.30;3.22;;;14.30;99.90;;;;;;5010011;28;20617;-87
2021/08/10 05:12:07;;;;;;;6.63;3.40;;;14.30;99.90;;;;;;5010170;28;20044;-87
2021/08/10 05:14:33;;;;;;;5.07;2.72;;;14.30;99.90;;;;;;5007579;28;20034;-88
2021/08/10 05:16:58;;;;;;;5.38;2.70;;;14.30;99.90;;;;;;5008388;28;20030;-88
2021/08/10 05:19:24;;;;;;;6.07;2.97;;;14.30;99.90;;;;;;5004232;28;20428;-88
2021/08/10 05:21:49;;;;;;;5.55;2.63;;;14.40;99.90;;;;;;5009633;28;20034;-87
2021/08/10 05:24:15;;;;;;;7.82;2.60;;;14.40;99.90;;;;;;5005735;28;20024;-87
2021/08/10 05:26:41;;;;;;;6.68;3.33;;;14.50;99.90;;;;;;5008521;28;20501;-88
2021/08/10 05:29:06;;;;;;;6.05;3.55;;;14.60;99.90;;;;;;5012080;28;20018;-88
2021/08/10 05:31:32;;;;;;;7.18;3.30;;;14.60;99.90;;;;;;5009641;28;20133;-89
2021/08/10 05:33:57;;;;;;;6.13;3.47;;;14.70;99.90;;;;;;5002999;28;20109;-89
2021/08/10 05:36:23;;;;;;;6.63;3.13;;;14.80;99.90;;;;;;5006657;28;20030;-90
2021/08/10 05:38:50;;;;;;;5.20;3.25;;;14.80;99.90;;;;;;5006048;28;20026;-88
2021/08/10 05:41:16;;;;;;;8.50;3.50;;;14.80;99.90;;;;;;5008812;28;20018;-88
2021/08/10 05:43:42;;;;;;;6.45;3.17;;;14.90;99.90;;;;;;5006134;28;20045;-87
2021/08/10 05:46:08;;;;;;;5.88;2.88;;;15.10;99.90;;;;;;4999211;28;20026;-88
2021/08/10 05:48:33;;;;;;;4.78;2.63;;;15.30;99.90;;;;;;5005162;28;20022;-89
2021/08/10 05:51:00;;;;;;;6.18;2.40;;;15.60;99.90;;;;;;5007849;28;20042;-87
2021/08/10 05:53:26;;;;;;;5.95;3.03;;;15.80;99.90;;;;;;5003728;28;20478;-86
2021/08/10 05:55:51;;;;;;;8.90;3.15;;;15.90;99.90;;;;;;5004637;28;20041;-86
2021/08/10 05:58:17;;;;;;;7.30;3.40;;;15.90;99.90;;;;;;5010095;28;20022;-87
2021/08/10 06:00:42;;;;;;;5.88;3.95;;;16.00;99.90;;;;;;5010219;28;20089;-88
2021/08/10 06:03:08;;;;;;;6.05;3.55;;;16.00;99.90;;;;;;5009957;28;20474;-88
2021/08/10 06:05:34;;;;;;;8.75;4.25;;;16.10;99.90;;;;;;5010676;28;20054;-87
2021/08/10 06:08:00;;;;;;;5.75;3.38;;;16.10;99.90;;;;;;5008920;28;20022;-87
2021/08/10 06:10:26;;;;;;;8.57;3.83;;;16.20;99.90;;;;;;5007293;28;20025;-89
2021/08/10 06:12:52;;;;;;;6.75;3.63;;;16.40;99.90;;;;;;5006567;28;20052;-87
2021/08/10 06:15:17;;;;;;;7.82;4.22;;;16.50;99.90;;;;;;5007515;28;20030;-89
2021/08/10 06:17:43;;;;;;;5.97;3.55;;;16.50;99.90;;;;;;5011179;28;20435;-89
2021/08/10 06:20:10;;;;;;;7.78;3.75;;;16.60;99.90;;;;;;5014644;28;20052;-89
2021/08/10 06:22:36;;;;;;;7.15;3.95;;;16.60;99.90;;;;;;5014241;28;20034;-88
2021/08/10 06:25:01;;;;;;;7.95;3.85;;;16.60;99.90;;;;;;5011648;28;20117;-89
2021/08/10 06:27:27;;;;;;;7.10;3.55;;;16.60;99.90;;;;;;5011231;28;20029;-87
2021/08/10 06:29:52;;;;;;;8.88;4.30;;;16.70;99.90;;;;;;5010363;28;20106;-89
2021/08/10 06:32:18;;;;;;;9.60;4.05;;;16.70;99.90;;;;;;5012724;28;20491;-88
2021/08/10 06:34:43;;;;;;;10.43;4.90;;;16.70;99.90;;;;;;4999852;28;20026;-89
2021/08/10 06:37:09;;;;;;;6.30;4.70;;;16.70;99.90;;;;;;5004042;28;20121;-89
2021/08/10 06:39:35;;;;;;;7.00;4.28;;;16.70;99.90;;;;;;5011422;28;20079;-89
2021/08/10 06:42:00;;;;;;;8.48;4.32;;;16.70;99.90;;;;;;5013137;28;20026;-88
2021/08/10 06:44:26;;;;;;;8.73;4.13;;;16.60;99.90;;;;;;5003613;28;20030;-87
2021/08/10 06:46:51;;;;;;;7.85;3.88;;;16.60;99.90;;;;;;5008931;28;20616;-88
2021/08/10 06:49:17;;;;;;;5.80;3.60;;;16.60;99.90;;;;;;5009445;28;20394;-87
2021/08/10 06:51:43;;;;;;;7.57;4.47;;;16.50;99.90;;;;;;5010962;28;20038;-88
2021/08/10 06:54:08;;;;;;;6.18;3.85;;;16.50;99.90;;;;;;5013745;28;20125;-89
2021/08/10 06:56:34;;;;;;;8.65;3.97;;;16.60;99.90;;;;;;5012843;28;20084;-89
2021/08/10 06:58:59;;;;;;;8.23;3.80;;;16.60;99.90;;;;;;5009416;28;20371;-88
2021/08/10 07:01:25;;;;;;;6.13;3.35;;;16.60;99.90;;;;;;5011258;28;20076;-89
2021/08/10 07:03:53;;;;;;;6.50;4.05;;;16.60;99.90;;;;;;5010796;28;20478;-86
2021/08/10 07:06:19;;;;;;;6.35;3.83;;;16.70;99.90;;;;;;5006700;28;20039;-88
2021/08/10 07:08:44;;;;;;;6.43;4.05;;;16.80;99.90;;;;;;4992157;28;20113;-87
2021/08/10 07:11:09;;;;;;;6.90;4.05;;;16.80;99.90;;;;;;5011805;28;20048;-87
2021/08/10 07:13:35;;;;;;;12.23;4.72;;;16.90;99.90;;;;;;5009167;28;20446;-87
2021/08/10 07:16:01;;;;;;;8.43;4.82;;;17.00;99.90;;;;;;5009870;28;20044;-87
2021/08/10 07:18:26;;;;;;;8.15;4.07;;;17.00;99.90;;;;;;5010979;28;20026;-88
2021/08/10 07:20:52;;;;;;;7.40;3.92;;;17.10;99.90;;;;;;5009532;28;20058;-87
2021/08/10 07:23:17;;;;;;;7.60;4.57;;;17.10;99.90;;;;;;5013666;28;20026;-88
2021/08/10 07:25:43;;;;;;;9.85;4.85;;;17.00;99.90;;;;;;5010694;28;20052;-89
2021/08/10 07:28:08;;;;;;;9.48;4.80;;;17.00;99.90;;;;;;5013480;28;20038;-88
2021/08/10 07:30:34;;;;;;;7.32;4.45;;;17.10;99.90;;;;;;5013290;28;20022;-89
2021/08/10 07:32:59;;;;;;;10.23;4.40;;;17.10;99.90;;;;;;5013418;28;20128;-88
2021/08/10 07:35:25;;;;;;;12.50;5.20;;;17.30;99.90;;;;;;5016704;28;20397;-88
2021/08/10 07:37:50;;;;;;;11.15;4.78;;;17.30;99.90;;;;;;5017521;28;20021;-88
2021/08/10 07:40:16;;;;;;;11.70;4.93;;;17.40;99.90;;;;;;5014037;28;20038;-87
2021/08/10 07:42:42;;;;;;;9.85;4.28;;;17.40;99.90;;;;;;5006074;28;20056;-88
2021/08/10 07:45:08;;;;;;;8.27;3.83;;;17.40;99.80;;;;;;5013902;28;20036;-87
2021/08/10 07:47:34;;;;;;;10.13;4.15;;;17.50;99.90;;;;;;5011969;28;20076;-88
2021/08/10 07:50:00;;;;;;;7.15;4.15;;;17.50;99.80;;;;;;5008467;28;20030;-88
2021/08/10 07:52:25;;;;;;;10.10;3.88;;;17.50;99.80;;;;;;5006420;28;20048;-87
2021/08/10 07:54:51;;;;;;;8.88;4.47;;;17.60;99.70;;;;;;5012954;28;20022;-88
2021/08/10 07:57:16;;;;;;;8.20;4.07;;;17.80;99.50;;;;;;5015850;28;20036;-88
2021/08/10 07:59:42;;;;;;;7.13;3.88;;;18.00;99.50;;;;;;5015798;28;20033;-87
2021/08/10 08:02:08;;;;;;;7.38;3.17;;;18.00;99.10;;;;;;5015529;28;20052;-88
2021/08/10 08:04:34;;;;;;;5.78;3.15;;;18.00;98.60;;;;;;5003199;28;20042;-89
2021/08/10 08:07:03;;;;;;;5.85;3.47;;;17.90;98.60;;;;;;5014712;28;20025;-89
2021/08/10 08:09:28;;;;;;;7.47;4.00;;;18.00;98.70;;;;;;5014738;28;20026;-88
2021/08/10 08:11:54;;;;;;;6.60;3.30;;;18.00;98.80;;;;;;5007474;28;20522;-89
2021/08/10 08:14:21;;;;;;;6.25;3.15;;;18.00;98.40;;;;;;5005558;28;20030;-88
2021/08/10 08:16:47;;;;;;;8.43;3.40;;;18.10;98.30;;;;;;5015461;28;20053;-88
2021/08/10 08:19:13;;;;;;;7.90;4.13;;;18.10;98.00;;;;;;5014416;28;20482;-88
2021/08/10 08:21:39;;;;;;;6.93;4.53;;;18.10;98.00;;;;;;5014351;28;20034;-90
2021/08/10 08:24:05;;;;;;;5.95;4.45;;;18.10;98.10;;;;;;5016206;28;20034;-89
2021/08/10 08:26:30;;;;;;;6.63;4.57;;;18.20;98.10;;;;;;5016242;28;20045;-88
2021/08/10 08:28:56;;;;;;;7.47;4.68;;;18.30;98.50;;;;;;5016136;28;20021;-89
2021/08/10 08:31:22;;;;;;;8.50;4.97;;;18.40;98.00;;;;;;5012507;28;20473;-89
2021/08/10 08:33:47;;;;;;;15.93;5.13;;;18.50;97.70;;;;;;5015830;28;20474;-88
2021/08/10 08:36:16;;;;;;;9.27;5.45;;;18.50;97.60;;;;;;5014401;28;20107;-90
2021/08/10 08:38:41;;;;;;;6.72;5.28;;;18.60;97.60;;;;;;5009519;28;20030;-89
2021/08/10 08:41:08;;;;;;;8.15;5.05;;;18.70;97.60;;;;;;5014562;28;20041;-87
2021/08/10 08:43:33;;;;;;;6.85;5.15;;;18.80;97.70;;;;;;5014768;28;20037;-88
2021/08/10 08:45:59;;;;;;;5.65;4.38;;;19.00;97.40;;;;;;5005000;28;20022;-87
2021/08/10 08:48:26;;;;;;;7.93;5.15;;;19.30;97.40;;;;;;5010204;28;20045;-88
2021/08/10 08:50:52;;;;;;;5.47;3.33;;;19.60;96.80;;;;;;5006361;28;20076;-89
2021/08/10 08:53:19;;;;;;;6.70;3.28;;;19.60;96.20;;;;;;5015798;28;20122;-87
2021/08/10 08:55:46;;;;;;;6.00;2.80;;;19.60;96.00;;;;;;5014475;28;20034;-87
2021/08/10 08:58:13;;;;;;;7.18;3.95;;;19.70;95.70;;;;;;5013744;28;20402;-88
2021/08/10 09:00:39;;;;;;;8.07;3.42;;;19.80;95.30;;;;;;5014826;28;20026;-87
2021/08/10 09:03:05;;;;;;;5.60;3.13;;;19.80;94.90;;;;;;5013665;28;20505;-88
2021/08/10 09:05:34;;;;;;;7.13;3.17;;;19.90;95.00;;;;;;5013919;28;20510;-88
2021/08/10 09:08:29;;;;;;;6.78;2.28;;;20.00;94.80;;;;;;5011276;28;20079;-88
2021/08/10 09:10:57;;;;;;;7.75;2.40;;;20.10;94.70;;;;;;5012619;28;20046;-89
2021/08/10 09:13:23;;;;;;;5.32;2.53;;;20.10;94.60;;;;;;5014223;28;20021;-88
2021/08/10 09:15:49;;;;;;;3.22;1.70;;;20.20;94.60;;;;;;5003615;28;20027;-88
2021/08/10 09:18:17;;;;;;;5.13;2.33;;;20.40;94.20;;;;;;5014249;28;20539;-89
2021/08/10 09:21:19;;;;;;;5.32;1.88;;;20.50;93.30;;;;;;5008628;28;20066;-88
2021/08/10 09:23:54;;;;;;;3.78;1.67;;;20.50;93.40;;;;;;5007105;28;20362;-87
2021/08/10 09:26:24;;;;;;;5.38;2.22;;;20.40;93.20;;;;;;5010083;28;20478;-88
2021/08/10 09:28:55;;;;;;;8.05;1.95;;;20.30;93.40;;;;;;5013380;28;20030;-87
2021/08/10 09:31:41;;;;;;;5.55;2.08;;;20.30;93.50;;;;;;5016560;28;20061;-88
2021/08/10 09:34:22;;;;;;;5.35;1.80;;;20.50;93.30;;;;;;5008618;28;20060;-87
2021/08/10 09:36:48;;;;;;;10.98;3.58;;;20.60;93.50;;;;;;5014275;28;20026;-88
2021/08/10 09:39:15;;;;;;;7.65;2.45;;;20.80;93.10;;;;;;5015263;28;20026;-87
2021/08/10 09:42:00;;;;;;;4.35;1.60;;;21.00;92.60;;;;;;5014795;28;20469;-86
2021/08/10 09:44:25;;;;;;;5.78;1.67;;;21.10;92.50;;;;;;5013938;28;20034;-87
2021/08/10 09:46:53;;;;;;;5.28;1.55;;;21.30;92.50;;;;;;5014751;28;20173;-87
2021/08/10 09:49:20;;;;;;;4.53;1.80;;;21.50;92.10;;;;;;5015809;28;20026;-88
2021/08/10 09:51:48;;;;;;;4.10;1.88;;;21.50;91.30;;;;;;5012768;28;20041;-87
2021/08/10 09:54:15;;;;;;;4.03;1.70;;;21.40;91.00;;;;;;5013718;28;20033;-88
2021/08/10 09:56:54;;;;;;;4.70;1.95;;;21.30;91.20;;;;;;5010567;28;20113;-86
2021/08/10 09:59:38;;;;;;;4.13;2.08;;;21.10;91.00;;;;;;5014472;28;20030;-87
2021/08/10 10:02:24;;;;;;;4.70;2.20;;;20.80;90.80;;;;;;5012614;28;20093;-87
2021/08/10 10:04:52;;;;;;;5.78;2.42;;;20.50;91.20;;;;;;5002024;28;20147;-86
2021/08/10 10:07:18;;;;;;;5.28;3.10;;;20.40;92.00;;;;;;5014133;28;20026;-86
2021/08/10 10:09:44;;;;;;;4.18;2.83;;;20.50;92.20;;;;;;5017562;28;20033;-86
2021/08/10 10:12:10;;;;;;;8.40;3.00;;;20.70;92.00;;;;;;5011592;28;20030;-87
2021/08/10 10:14:38;;;;;;;5.22;2.60;;;20.90;91.90;;;;;;5014569;28;20049;-86
2021/08/10 10:17:05;;;;;;;6.35;2.72;;;21.20;91.90;;;;;;5005557;28;20027;-86
2021/08/10 10:19:35;;;;;;;4.90;2.50;;;21.40;91.40;;;;;;5012361;28;20072;-87
2021/08/10 10:22:03;;;;;;;8.27;2.65;;;21.50;91.10;;;;;;5014119;28;20486;-87
2021/08/10 10:24:37;;;;;;;4.63;2.63;;;21.50;91.20;;;;;;5014852;28;20383;-87
2021/08/10 10:27:05;;;;;;;5.63;2.60;;;21.70;90.80;;;;;;5015252;28;20025;-87
2021/08/10 10:29:32;;;;;;;6.32;2.65;;;21.70;90.30;;;;;;5015933;28;20037;-87
2021/08/10 10:31:58;;;;;;;4.38;2.28;;;21.60;90.10;;;;;;5013560;28;20111;-88
2021/08/10 10:34:24;;;;;;;5.28;1.88;;;21.70;90.00;;;;;;5013070;28;20029;-87
2021/08/10 10:36:50;;;;;;;4.85;1.65;;;21.70;90.20;;;;;;5008764;28;20368;-88
2021/08/10 10:39:28;;;;;;;7.45;3.33;;;21.90;89.70;;;;;;5009865;28;20034;-87
2021/08/10 10:41:57;;;;;;;4.60;2.00;;;22.00;89.20;;;;;;5012971;28;20045;-86
2021/08/10 10:44:42;;;;;;;4.88;1.75;;;22.00;88.00;;;;;;5014059;28;20037;-87
2021/08/10 10:47:23;;;;;;;4.97;2.05;;;21.80;86.40;;;;;;5005848;28;20049;-87
2021/08/10 10:50:13;;;;;;;4.32;1.85;;;21.60;87.50;;;;;;5004754;28;20805;-87
2021/08/10 10:52:39;;;;;;;3.92;1.90;;;21.70;88.80;;;;;;5012543;28;20038;-87
2021/08/10 10:55:06;;;;;;;5.00;2.00;;;21.90;88.00;;;;;;5012772;28;20029;-87
2021/08/10 10:57:31;;;;;;;3.67;1.60;;;21.90;86.40;;;;;;5013557;28;20030;-87
2021/08/10 10:59:58;;;;;;;5.35;2.05;;;21.90;85.80;;;;;;5012685;28;20474;-88
2021/08/10 11:02:27;;;;;;;4.35;1.50;;;21.80;86.50;;;;;;5012412;28;20026;-87
2021/08/10 11:05:08;;;;;;;4.50;1.50;;;21.50;86.90;;;;;;5012327;28;20045;-88
2021/08/10 11:07:53;;;;;;;4.32;2.05;;;21.40;87.20;;;;;;5013330;28;20026;-87
2021/08/10 11:10:42;;;;;;;3.75;1.63;;;21.10;87.50;;;;;;5014647;28;20026;-87
2021/08/10 11:13:17;;;;;;;4.25;1.88;;;20.90;88.60;;;;;;5016104;28;20443;-87
2021/08/10 11:15:46;;;;;;;4.22;1.98;;;20.90;89.30;;;;;;5015295;28;20371;-89
2021/08/10 11:18:11;;;;;;;2.92;1.42;;;21.00;89.60;;;;;;5017059;28;20105;-87
2021/08/10 11:20:38;;;;;;;5.65;1.85;;;21.20;89.40;;;;;;5011322;28;20060;-87
2021/08/10 11:23:27;;;;;;;5.45;1.90;;;21.40;88.40;;;;;;5015524;28;20113;-87
2021/08/10 11:25:58;;;;;;;4.80;1.80;;;21.40;87.20;;;;;;5002973;28;20030;-87
2021/08/10 11:28:43;;;;;;;4.93;2.22;;;21.40;87.20;;;;;;5016425;28;20022;-87
2021/08/10 11:31:11;;;;;;;5.13;1.65;;;21.40;87.00;;;;;;5015331;28;20049;-87
2021/08/10 11:33:41;;;;;;;6.07;1.83;;;21.40;86.50;;;;;;5017091;28;20028;-88
2021/08/10 11:36:10;;;;;;;4.53;1.52;;;21.50;86.00;;;;;;5017912;28;20022;-87
2021/08/10 11:38:45;;;;;;;5.43;1.60;;;21.80;86.10;;;;;;5016574;28;20153;-87
2021/08/10 11:41:15;;;;;;;3.75;1.83;;;21.90;85.30;;;;;;5015389;28;20030;-86
2021/08/10 11:43:42;;;;;;;3.38;1.83;;;21.90;85.40;;;;;;5014685;28;20077;-88
2021/08/10 11:46:24;;;;;;;5.13;1.70;;;21.90;84.40;;;;;;5016969;28;20508;-87
2021/08/10 11:48:55;;;;;;;4.57;2.00;;;21.90;85.20;;;;;;5016318;28;20061;-88
2021/08/10 11:51:23;;;;;;;4.03;2.63;;;21.90;84.20;;;;;;5009524;28;20042;-86
2021/08/10 11:53:54;;;;;;;4.40;1.92;;;22.10;84.80;;;;;;5011151;28;20022;-87
2021/08/10 11:56:34;;;;;;;5.60;2.08;;;22.20;84.60;;;;;;5010841;28;20029;-88
2021/08/10 11:59:02;;;;;;;5.70;2.35;;;22.40;83.80;;;;;;5015276;28;20052;-88
2021/08/10 12:01:31;;;;;;;5.28;2.20;;;22.40;83.30;;;;;;5015247;28;20034;-87
2021/08/10 12:04:09;;;;;;;3.55;1.88;;;22.40;82.80;;;;;;5014510;28;20038;-88
2021/08/10 12:06:35;;;;;;;7.18;2.70;;;22.30;83.60;;;;;;5016747;28;20052;-89
2021/08/10 12:09:08;;;;;;;5.45;2.30;;;22.20;82.80;;;;;;5015319;28;20026;-87
2021/08/10 12:11:34;;;;;;;5.32;2.10;;;22.00;83.80;;;;;;5016198;28;20037;-87
2021/08/10 12:14:13;;;;;;;5.50;2.10;;;21.90;84.60;;;;;;5013234;28;20018;-88
2021/08/10 12:16:56;;;;;;;4.30;1.83;;;21.80;84.80;;;;;;5013464;28;20485;-88
2021/08/10 12:19:31;;;;;;;5.07;2.03;;;21.60;84.70;;;;;;5004231;28;20034;-88
2021/08/10 12:21:58;;;;;;;5.90;2.28;;;21.70;85.10;;;;;;5014232;28;20030;-87
2021/08/10 12:24:28;;;;;;;4.72;2.53;;;21.70;85.40;;;;;;5013968;28;20073;-87
2021/08/10 12:26:54;;;;;;;5.07;2.17;;;21.80;84.90;;;;;;5013689;28;20030;-87
2021/08/10 12:29:20;;;;;;;4.63;1.88;;;21.80;84.20;;;;;;5016639;28;20025;-87
2021/08/10 12:31:46;;;;;;;5.32;2.13;;;21.90;84.80;;;;;;5015325;28;20029;-87
2021/08/10 12:34:13;;;;;;;6.82;2.55;;;22.00;85.20;;;;;;5016251;28;20540;-88
2021/08/10 12:36:49;;;;;;;6.50;2.03;;;22.10;84.20;;;;;;5015529;28;20034;-87
2021/08/10 12:39:15;;;;;;;5.60;1.85;;;22.30;84.20;;;;;;5017089;28;20057;-87
2021/08/10 12:41:41;;;;;;;6.00;1.85;;;22.40;83.50;;;;;;5016680;28;20038;-88
2021/08/10 12:44:08;;;;;;;4.63;1.90;;;22.30;83.30;;;;;;5001239;28;20494;-87
2021/08/10 12:46:35;;;;;;;5.03;1.83;;;22.20;83.60;;;;;;4999850;28;20030;-87
2021/08/10 12:49:13;;;;;;;5.05;2.22;;;22.20;83.70;;;;;;5015105;28;20123;-88
2021/08/10 12:51:56;;;;;;;5.38;1.90;;;22.10;84.00;;;;;;5002649;28;20030;-87